Terminal Aerodrome Forecast
Issued by NWS Tulsa, OK

Home | Current Version | Previous Version | Text Only | Print | Product List | Glossary On
Versions: 1 2 3 4 5 6 7 8 9 10 11 12 13 14 15
896
FTUS44 KTSA 222320
TAFTUL
TAF
KTUL 222320Z 2300/2324 VRB06KT P6SM -SHRA SCT050 OVC100
      TEMPO 2300/2304 5SM -TSRA BKN035CB
     FM230400 VRB04KT P6SM VCSH SCT035 BKN045
     FM231000 33006KT 5SM BR OVC015
     FM231600 34010KT P6SM BKN025
     FM231900 32012KT P6SM BKN050 PROB30 2319/2324 5SM -TSRA
      BKN035CB=

USA.gov is the U.S. government's official web portal to all federal, state and local government web resources and services.